createdAt,value
2018-12-26T00:00:01.249Z,1022.31
2018-12-26T00:15:01.176Z,1022.1
2018-12-26T00:30:01.093Z,1022.49
2018-12-26T00:45:01.156Z,1022.44
2018-12-26T00:50:01.507Z,1022.48
2018-12-26T01:00:01.160Z,1022.56
2018-12-26T01:05:01.145Z,1022.56
2018-12-26T01:15:01.106Z,1022.45
2018-12-26T01:25:01.203Z,1022.67
2018-12-26T01:30:01.070Z,1022.57
2018-12-26T01:40:01.100Z,1022.64
2018-12-26T01:45:01.111Z,1022.64
2018-12-26T02:00:01.615Z,1022.28
2018-12-26T02:15:01.545Z,1022.28
2018-12-26T02:30:01.130Z,1022.37
2018-12-26T02:45:01.117Z,1022.37
2018-12-26T03:00:01.224Z,1022.36
2018-12-26T03:15:01.364Z,1022.15
2018-12-26T03:30:01.136Z,1021.97
2018-12-26T03:45:01.260Z,1021.84
2018-12-26T04:00:01.352Z,1021.8
2018-12-26T04:15:01.307Z,1021.81
2018-12-26T04:30:01.226Z,1021.69
2018-12-26T04:40:01.217Z,1021.78
2018-12-26T04:45:01.352Z,1021.78
2018-12-26T04:50:01.085Z,1021.69
2018-12-26T05:00:01.232Z,1021.65
2018-12-26T05:15:01.180Z,1021.57
2018-12-26T05:25:01.169Z,1021.72
2018-12-26T05:30:01.085Z,1021.7
2018-12-26T05:40:01.143Z,1021.69
2018-12-26T05:45:01.225Z,1021.69
2018-12-26T05:50:01.150Z,1021.76
2018-12-26T06:00:01.453Z,1021.83
2018-12-26T06:15:01.733Z,1022.01
2018-12-26T06:25:00.966Z,1021.99
2018-12-26T06:30:01.099Z,1022.18
2018-12-26T06:40:01.102Z,1022.16
2018-12-26T06:45:01.518Z,1022.16
2018-12-26T07:00:01.123Z,1022.31
2018-12-26T07:15:01.106Z,1022.41
2018-12-26T07:30:01.365Z,1022.63
2018-12-26T07:40:01.153Z,1022.81
2018-12-26T07:45:01.375Z,1022.81
2018-12-26T08:00:01.325Z,1022.74
2018-12-26T08:15:01.137Z,1022.76
2018-12-26T08:30:01.148Z,1022.81
2018-12-26T08:40:01.131Z,1022.9
2018-12-26T08:45:01.132Z,1022.9
2018-12-26T09:00:01.148Z,1023.1800000000001
2018-12-26T09:10:01.300Z,1023.1800000000001
2018-12-26T09:15:01.143Z,1023.1800000000001
2018-12-26T09:20:01.142Z,1023.1400000000001
2018-12-26T09:30:01.163Z,1023.26
2018-12-26T09:45:01.142Z,1023.26
2018-12-26T10:00:01.161Z,1023.4100000000001
2018-12-26T10:15:01.250Z,1023.3900000000001
2018-12-26T10:30:01.181Z,1023.3299999999999
2018-12-26T10:45:01.169Z,1023.21
2018-12-26T11:00:01.188Z,1023.2
2018-12-26T11:15:01.188Z,1023.21
2018-12-26T11:20:01.174Z,1023.2
2018-12-26T11:30:01.203Z,1023.22
2018-12-26T11:45:01.190Z,1023.04
2018-12-26T11:55:01.221Z,1022.99
2018-12-26T12:00:01.192Z,1022.89
2018-12-26T12:10:01.189Z,1022.96
2018-12-26T12:15:01.252Z,1022.96
2018-12-26T12:30:01.239Z,1023.0799999999999
2018-12-26T12:40:01.396Z,1023.1800000000001
2018-12-26T12:45:01.250Z,1023.1800000000001
2018-12-26T13:00:01.245Z,1023.1400000000001
2018-12-26T13:10:01.245Z,1023.1400000000001
2018-12-26T13:15:01.258Z,1023.1400000000001
2018-12-26T13:30:01.216Z,1023.0799999999999
2018-12-26T13:40:01.249Z,1023.0799999999999
2018-12-26T13:45:01.249Z,1023.0799999999999
2018-12-26T13:55:01.201Z,1022.98
2018-12-26T14:00:03.154Z,1022.92
2018-12-26T14:05:01.216Z,1022.92
2018-12-26T14:15:01.244Z,1022.91
2018-12-26T14:30:01.232Z,1022.83
2018-12-26T14:45:01.235Z,1022.76
2018-12-26T15:00:01.264Z,1022.95
2018-12-26T15:15:01.298Z,1022.96
2018-12-26T15:30:01.261Z,1022.96
2018-12-26T15:45:01.257Z,1022.83
2018-12-26T16:00:01.452Z,1022.81
2018-12-26T16:15:01.378Z,1022.81
2018-12-26T16:30:01.393Z,1022.63
2018-12-26T16:45:01.515Z,1022.63
2018-12-26T16:50:01.396Z,1022.55
2018-12-26T17:00:01.461Z,1022.43
2018-12-26T17:15:01.467Z,1022.28
2018-12-26T17:30:01.414Z,1022.3
2018-12-26T17:45:01.534Z,1022.28
2018-12-26T17:50:01.281Z,1022.31
2018-12-26T18:00:01.603Z,1022.24
2018-12-26T18:15:01.423Z,1022.26
2018-12-26T18:30:01.530Z,1022.38
2018-12-26T18:45:01.418Z,1022.31
2018-12-26T18:50:01.283Z,1022.27
2018-12-26T19:00:01.510Z,1022.28
2018-12-26T19:15:01.437Z,1022.31
2018-12-26T19:30:02.970Z,1022.33
2018-12-26T19:45:01.537Z,1022.35
2018-12-26T20:00:01.621Z,1022.43
2018-12-26T20:15:01.453Z,1022.35
2018-12-26T20:30:01.464Z,1022.29
2018-12-26T20:45:01.392Z,1022.36
2018-12-26T21:00:01.559Z,1022.35
2018-12-26T21:15:01.468Z,1022.21
2018-12-26T21:20:01.476Z,1022.13
2018-12-26T21:30:01.573Z,1022.02
2018-12-26T21:45:01.417Z,1021.95
2018-12-26T22:00:01.519Z,1021.78
2018-12-26T22:15:01.601Z,1021.71
2018-12-26T22:20:01.355Z,1021.75
2018-12-26T22:30:01.430Z,1021.69
2018-12-26T22:45:01.443Z,1021.71
2018-12-26T23:00:01.545Z,1021.66
2018-12-26T23:15:01.525Z,1021.56
2018-12-26T23:25:01.469Z,1021.55
2018-12-26T23:30:01.376Z,1021.49
2018-12-26T23:45:01.506Z,1021.43
